sensor_id;sensor_type;location;lat;lon;timestamp;P1;durP1;ratioP1;P2;durP2;ratioP2
7833;SDS011;3962;42.696;23.354;2022-09-09T00:01:11;7.73;;;6.13;;
7833;SDS011;3962;42.696;23.354;2022-09-09T00:03:53;12.13;;;7.23;;
7833;SDS011;3962;42.696;23.354;2022-09-09T00:06:23;9.63;;;7.03;;
7833;SDS011;3962;42.696;23.354;2022-09-09T00:08:58;8.73;;;6.87;;
7833;SDS011;3962;42.696;23.354;2022-09-09T00:11:30;7.47;;;6.40;;
7833;SDS011;3962;42.696;23.354;2022-09-09T00:14:08;8.33;;;6.47;;
7833;SDS011;3962;42.696;23.354;2022-09-09T00:16:41;8.63;;;5.83;;
7833;SDS011;3962;42.696;23.354;2022-09-09T00:19:15;7.70;;;6.63;;
7833;SDS011;3962;42.696;23.354;2022-09-09T00:21:51;8.77;;;6.90;;
7833;SDS011;3962;42.696;23.354;2022-09-09T00:24:28;8.67;;;6.90;;
7833;SDS011;3962;42.696;23.354;2022-09-09T00:27:04;8.80;;;6.80;;
7833;SDS011;3962;42.696;23.354;2022-09-09T00:29:35;9.60;;;7.00;;
7833;SDS011;3962;42.696;23.354;2022-09-09T00:32:11;8.87;;;6.87;;
7833;SDS011;3962;42.696;23.354;2022-09-09T00:34:39;7.10;;;6.37;;
7833;SDS011;3962;42.696;23.354;2022-09-09T00:37:13;9.43;;;6.37;;
7833;SDS011;3962;42.696;23.354;2022-09-09T00:39:41;8.50;;;6.43;;
7833;SDS011;3962;42.696;23.354;2022-09-09T00:42:14;10.07;;;7.10;;
7833;SDS011;3962;42.696;23.354;2022-09-09T00:44:51;7.93;;;6.47;;
7833;SDS011;3962;42.696;23.354;2022-09-09T00:47:35;9.60;;;7.07;;
7833;SDS011;3962;42.696;23.354;2022-09-09T00:50:15;10.63;;;6.93;;
7833;SDS011;3962;42.696;23.354;2022-09-09T00:52:59;10.53;;;7.70;;
7833;SDS011;3962;42.696;23.354;2022-09-09T00:55:46;9.70;;;7.27;;
7833;SDS011;3962;42.696;23.354;2022-09-09T00:58:18;10.77;;;6.93;;
7833;SDS011;3962;42.696;23.354;2022-09-09T01:00:46;14.40;;;7.57;;
7833;SDS011;3962;42.696;23.354;2022-09-09T01:03:19;11.23;;;8.13;;
7833;SDS011;3962;42.696;23.354;2022-09-09T01:05:50;9.37;;;7.23;;
7833;SDS011;3962;42.696;23.354;2022-09-09T01:08:35;9.93;;;7.57;;
7833;SDS011;3962;42.696;23.354;2022-09-09T01:11:22;10.47;;;7.50;;
7833;SDS011;3962;42.696;23.354;2022-09-09T01:13:55;10.17;;;7.67;;
7833;SDS011;3962;42.696;23.354;2022-09-09T01:16:26;9.43;;;7.53;;
7833;SDS011;3962;42.696;23.354;2022-09-09T01:18:56;11.03;;;7.10;;
7833;SDS011;3962;42.696;23.354;2022-09-09T01:21:27;11.27;;;7.33;;
7833;SDS011;3962;42.696;23.354;2022-09-09T01:24:13;12.33;;;7.77;;
7833;SDS011;3962;42.696;23.354;2022-09-09T01:26:48;9.23;;;7.70;;
7833;SDS011;3962;42.696;23.354;2022-09-09T01:29:18;12.90;;;8.30;;
7833;SDS011;3962;42.696;23.354;2022-09-09T01:31:52;11.53;;;7.83;;
7833;SDS011;3962;42.696;23.354;2022-09-09T01:34:21;10.67;;;7.53;;
7833;SDS011;3962;42.696;23.354;2022-09-09T01:36:49;12.40;;;8.87;;
7833;SDS011;3962;42.696;23.354;2022-09-09T01:39:23;11.00;;;7.77;;
7833;SDS011;3962;42.696;23.354;2022-09-09T01:41:52;9.90;;;8.87;;
7833;SDS011;3962;42.696;23.354;2022-09-09T01:44:21;10.63;;;8.00;;
7833;SDS011;3962;42.696;23.354;2022-09-09T01:46:49;17.43;;;7.90;;
7833;SDS011;3962;42.696;23.354;2022-09-09T01:49:16;10.70;;;7.70;;
7833;SDS011;3962;42.696;23.354;2022-09-09T01:51:43;12.60;;;8.30;;
7833;SDS011;3962;42.696;23.354;2022-09-09T01:54:14;14.30;;;7.80;;
7833;SDS011;3962;42.696;23.354;2022-09-09T01:56:43;10.80;;;7.90;;
7833;SDS011;3962;42.696;23.354;2022-09-09T01:59:27;12.23;;;8.53;;
7833;SDS011;3962;42.696;23.354;2022-09-09T02:02:07;12.93;;;8.50;;
7833;SDS011;3962;42.696;23.354;2022-09-09T02:04:37;10.73;;;8.00;;
7833;SDS011;3962;42.696;23.354;2022-09-09T02:07:19;14.13;;;8.47;;
7833;SDS011;3962;42.696;23.354;2022-09-09T02:09:57;11.43;;;8.17;;
7833;SDS011;3962;42.696;23.354;2022-09-09T02:12:27;14.67;;;8.60;;
7833;SDS011;3962;42.696;23.354;2022-09-09T02:14:59;11.50;;;8.10;;
7833;SDS011;3962;42.696;23.354;2022-09-09T02:17:31;13.17;;;8.37;;
7833;SDS011;3962;42.696;23.354;2022-09-09T02:20:05;14.47;;;9.87;;
7833;SDS011;3962;42.696;23.354;2022-09-09T02:22:34;11.90;;;9.30;;
7833;SDS011;3962;42.696;23.354;2022-09-09T02:25:05;10.27;;;7.80;;
7833;SDS011;3962;42.696;23.354;2022-09-09T02:27:34;10.77;;;7.57;;
7833;SDS011;3962;42.696;23.354;2022-09-09T02:30:03;9.47;;;8.10;;
7833;SDS011;3962;42.696;23.354;2022-09-09T02:32:31;9.83;;;7.97;;
7833;SDS011;3962;42.696;23.354;2022-09-09T02:35:02;14.27;;;7.93;;
7833;SDS011;3962;42.696;23.354;2022-09-09T02:37:37;12.33;;;9.17;;
7833;SDS011;3962;42.696;23.354;2022-09-09T02:40:05;11.87;;;8.93;;
7833;SDS011;3962;42.696;23.354;2022-09-09T02:42:38;11.13;;;9.57;;
7833;SDS011;3962;42.696;23.354;2022-09-09T02:45:08;11.67;;;9.43;;
7833;SDS011;3962;42.696;23.354;2022-09-09T02:47:37;11.73;;;9.60;;
7833;SDS011;3962;42.696;23.354;2022-09-09T02:50:12;12.93;;;9.60;;
7833;SDS011;3962;42.696;23.354;2022-09-09T02:52:47;15.33;;;10.97;;
7833;SDS011;3962;42.696;23.354;2022-09-09T02:55:28;11.90;;;9.60;;
7833;SDS011;3962;42.696;23.354;2022-09-09T02:58:02;14.63;;;9.90;;
7833;SDS011;3962;42.696;23.354;2022-09-09T03:00:33;13.40;;;10.13;;
7833;SDS011;3962;42.696;23.354;2022-09-09T03:03:02;13.70;;;10.23;;
7833;SDS011;3962;42.696;23.354;2022-09-09T03:05:29;14.10;;;10.73;;
7833;SDS011;3962;42.696;23.354;2022-09-09T03:07:56;13.73;;;9.87;;
7833;SDS011;3962;42.696;23.354;2022-09-09T03:10:23;14.17;;;10.73;;
7833;SDS011;3962;42.696;23.354;2022-09-09T03:12:50;12.20;;;10.17;;
7833;SDS011;3962;42.696;23.354;2022-09-09T03:15:17;14.70;;;9.77;;
7833;SDS011;3962;42.696;23.354;2022-09-09T03:17:45;14.43;;;9.83;;
7833;SDS011;3962;42.696;23.354;2022-09-09T03:20:12;13.17;;;9.63;;
7833;SDS011;3962;42.696;23.354;2022-09-09T03:22:39;13.43;;;10.03;;
7833;SDS011;3962;42.696;23.354;2022-09-09T03:25:07;12.00;;;9.47;;
7833;SDS011;3962;42.696;23.354;2022-09-09T03:27:34;15.57;;;10.87;;
7833;SDS011;3962;42.696;23.354;2022-09-09T03:30:01;13.57;;;10.23;;
7833;SDS011;3962;42.696;23.354;2022-09-09T03:32:29;18.00;;;9.83;;
7833;SDS011;3962;42.696;23.354;2022-09-09T03:34:57;14.77;;;10.17;;
7833;SDS011;3962;42.696;23.354;2022-09-09T03:37:24;13.63;;;10.73;;
7833;SDS011;3962;42.696;23.354;2022-09-09T03:39:51;12.50;;;9.97;;
7833;SDS011;3962;42.696;23.354;2022-09-09T03:42:19;12.97;;;9.20;;
7833;SDS011;3962;42.696;23.354;2022-09-09T03:44:47;12.87;;;9.27;;
7833;SDS011;3962;42.696;23.354;2022-09-09T03:47:15;13.53;;;9.30;;
7833;SDS011;3962;42.696;23.354;2022-09-09T03:49:44;12.50;;;9.77;;
7833;SDS011;3962;42.696;23.354;2022-09-09T03:52:12;18.67;;;10.00;;
7833;SDS011;3962;42.696;23.354;2022-09-09T03:54:39;12.53;;;10.13;;
7833;SDS011;3962;42.696;23.354;2022-09-09T03:57:07;15.73;;;10.80;;
7833;SDS011;3962;42.696;23.354;2022-09-09T03:59:35;16.47;;;11.33;;
7833;SDS011;3962;42.696;23.354;2022-09-09T04:02:02;15.87;;;11.07;;
7833;SDS011;3962;42.696;23.354;2022-09-09T04:04:29;21.50;;;11.90;;
7833;SDS011;3962;42.696;23.354;2022-09-09T04:06:56;31.50;;;21.53;;
7833;SDS011;3962;42.696;23.354;2022-09-09T04:09:24;27.80;;;20.57;;
7833;SDS011;3962;42.696;23.354;2022-09-09T04:11:51;54.07;;;42.83;;
7833;SDS011;3962;42.696;23.354;2022-09-09T04:14:18;52.73;;;42.10;;
7833;SDS011;3962;42.696;23.354;2022-09-09T04:16:45;27.47;;;21.67;;
7833;SDS011;3962;42.696;23.354;2022-09-09T04:19:12;38.20;;;29.10;;
7833;SDS011;3962;42.696;23.354;2022-09-09T04:21:39;20.07;;;13.53;;
7833;SDS011;3962;42.696;23.354;2022-09-09T04:24:06;23.03;;;12.33;;
7833;SDS011;3962;42.696;23.354;2022-09-09T04:26:36;17.07;;;11.43;;
7833;SDS011;3962;42.696;23.354;2022-09-09T04:29:03;12.40;;;9.10;;
7833;SDS011;3962;42.696;23.354;2022-09-09T04:31:33;12.13;;;8.83;;
7833;SDS011;3962;42.696;23.354;2022-09-09T04:34:00;19.10;;;11.10;;
7833;SDS011;3962;42.696;23.354;2022-09-09T04:36:30;17.93;;;12.20;;
7833;SDS011;3962;42.696;23.354;2022-09-09T04:38:58;16.70;;;10.83;;
7833;SDS011;3962;42.696;23.354;2022-09-09T04:41:26;14.43;;;11.20;;
7833;SDS011;3962;42.696;23.354;2022-09-09T04:43:55;20.37;;;12.37;;
7833;SDS011;3962;42.696;23.354;2022-09-09T04:46:21;21.23;;;11.53;;
7833;SDS011;3962;42.696;23.354;2022-09-09T04:48:48;16.13;;;10.03;;
7833;SDS011;3962;42.696;23.354;2022-09-09T04:51:16;12.23;;;8.93;;
7833;SDS011;3962;42.696;23.354;2022-09-09T04:53:43;14.30;;;10.80;;
7833;SDS011;3962;42.696;23.354;2022-09-09T04:56:13;15.97;;;8.97;;
7833;SDS011;3962;42.696;23.354;2022-09-09T04:58:41;10.83;;;8.70;;
7833;SDS011;3962;42.696;23.354;2022-09-09T05:01:11;12.57;;;9.63;;
7833;SDS011;3962;42.696;23.354;2022-09-09T05:03:39;12.57;;;9.83;;
7833;SDS011;3962;42.696;23.354;2022-09-09T05:06:06;14.03;;;9.93;;
7833;SDS011;3962;42.696;23.354;2022-09-09T05:08:35;12.60;;;9.57;;
7833;SDS011;3962;42.696;23.354;2022-09-09T05:11:12;13.63;;;10.27;;
7833;SDS011;3962;42.696;23.354;2022-09-09T05:13:40;16.50;;;10.20;;
7833;SDS011;3962;42.696;23.354;2022-09-09T05:16:07;19.10;;;10.20;;
7833;SDS011;3962;42.696;23.354;2022-09-09T05:18:37;14.53;;;10.53;;
7833;SDS011;3962;42.696;23.354;2022-09-09T05:21:04;16.37;;;10.37;;
7833;SDS011;3962;42.696;23.354;2022-09-09T05:23:31;20.30;;;11.17;;
7833;SDS011;3962;42.696;23.354;2022-09-09T05:25:59;15.43;;;10.80;;
7833;SDS011;3962;42.696;23.354;2022-09-09T05:28:26;13.40;;;9.77;;
7833;SDS011;3962;42.696;23.354;2022-09-09T05:30:57;13.63;;;9.63;;
7833;SDS011;3962;42.696;23.354;2022-09-09T05:33:25;13.17;;;9.67;;
7833;SDS011;3962;42.696;23.354;2022-09-09T05:35:58;14.87;;;9.43;;
7833;SDS011;3962;42.696;23.354;2022-09-09T05:38:26;16.53;;;9.63;;
7833;SDS011;3962;42.696;23.354;2022-09-09T05:40:54;11.73;;;7.90;;
7833;SDS011;3962;42.696;23.354;2022-09-09T05:43:22;15.30;;;8.80;;
7833;SDS011;3962;42.696;23.354;2022-09-09T05:45:58;13.10;;;9.33;;
7833;SDS011;3962;42.696;23.354;2022-09-09T05:48:27;14.93;;;9.63;;
7833;SDS011;3962;42.696;23.354;2022-09-09T05:50:55;9.13;;;7.10;;
7833;SDS011;3962;42.696;23.354;2022-09-09T05:53:24;10.50;;;8.27;;
7833;SDS011;3962;42.696;23.354;2022-09-09T05:55:57;8.37;;;7.07;;
7833;SDS011;3962;42.696;23.354;2022-09-09T05:58:25;11.30;;;7.90;;
7833;SDS011;3962;42.696;23.354;2022-09-09T06:00:52;8.60;;;7.20;;
7833;SDS011;3962;42.696;23.354;2022-09-09T06:03:26;9.00;;;6.60;;
7833;SDS011;3962;42.696;23.354;2022-09-09T06:05:56;8.83;;;6.57;;
7833;SDS011;3962;42.696;23.354;2022-09-09T06:08:25;8.03;;;6.10;;
7833;SDS011;3962;42.696;23.354;2022-09-09T06:10:52;7.50;;;5.70;;
7833;SDS011;3962;42.696;23.354;2022-09-09T06:13:19;9.33;;;6.00;;
7833;SDS011;3962;42.696;23.354;2022-09-09T06:15:49;11.10;;;6.60;;
7833;SDS011;3962;42.696;23.354;2022-09-09T06:18:17;11.10;;;5.90;;
7833;SDS011;3962;42.696;23.354;2022-09-09T06:20:52;6.60;;;5.27;;
7833;SDS011;3962;42.696;23.354;2022-09-09T06:23:20;6.83;;;5.00;;
7833;SDS011;3962;42.696;23.354;2022-09-09T06:25:49;9.30;;;4.83;;
7833;SDS011;3962;42.696;23.354;2022-09-09T06:28:16;6.77;;;5.50;;
7833;SDS011;3962;42.696;23.354;2022-09-09T06:30:44;6.73;;;5.70;;
7833;SDS011;3962;42.696;23.354;2022-09-09T06:33:11;9.87;;;5.93;;
7833;SDS011;3962;42.696;23.354;2022-09-09T06:35:37;6.63;;;5.60;;
7833;SDS011;3962;42.696;23.354;2022-09-09T06:38:04;8.20;;;5.50;;
7833;SDS011;3962;42.696;23.354;2022-09-09T06:40:31;8.10;;;5.70;;
7833;SDS011;3962;42.696;23.354;2022-09-09T06:43:00;5.63;;;5.07;;
7833;SDS011;3962;42.696;23.354;2022-09-09T06:45:27;7.50;;;5.00;;
7833;SDS011;3962;42.696;23.354;2022-09-09T06:47:55;7.80;;;5.53;;
7833;SDS011;3962;42.696;23.354;2022-09-09T06:50:22;11.47;;;5.47;;
7833;SDS011;3962;42.696;23.354;2022-09-09T06:52:49;6.47;;;5.27;;
7833;SDS011;3962;42.696;23.354;2022-09-09T06:55:16;7.40;;;4.70;;
7833;SDS011;3962;42.696;23.354;2022-09-09T06:57:44;6.43;;;5.10;;
7833;SDS011;3962;42.696;23.354;2022-09-09T07:00:13;6.80;;;5.07;;
7833;SDS011;3962;42.696;23.354;2022-09-09T07:02:40;10.87;;;5.77;;
7833;SDS011;3962;42.696;23.354;2022-09-09T07:05:07;6.37;;;5.03;;
7833;SDS011;3962;42.696;23.354;2022-09-09T07:07:34;5.07;;;4.57;;
7833;SDS011;3962;42.696;23.354;2022-09-09T07:10:02;8.13;;;5.30;;
7833;SDS011;3962;42.696;23.354;2022-09-09T07:12:30;8.30;;;6.50;;
7833;SDS011;3962;42.696;23.354;2022-09-09T07:14:57;6.67;;;4.70;;
7833;SDS011;3962;42.696;23.354;2022-09-09T07:17:25;6.10;;;5.17;;
7833;SDS011;3962;42.696;23.354;2022-09-09T07:19:54;8.30;;;5.57;;
7833;SDS011;3962;42.696;23.354;2022-09-09T07:22:21;5.87;;;4.90;;
7833;SDS011;3962;42.696;23.354;2022-09-09T07:24:48;5.93;;;5.10;;
7833;SDS011;3962;42.696;23.354;2022-09-09T07:27:16;7.37;;;5.40;;
7833;SDS011;3962;42.696;23.354;2022-09-09T07:29:43;16.40;;;6.43;;
7833;SDS011;3962;42.696;23.354;2022-09-09T07:32:10;13.43;;;5.67;;
7833;SDS011;3962;42.696;23.354;2022-09-09T07:34:38;12.77;;;7.20;;
7833;SDS011;3962;42.696;23.354;2022-09-09T07:37:05;9.27;;;4.97;;
7833;SDS011;3962;42.696;23.354;2022-09-09T07:39:33;6.43;;;4.67;;
7833;SDS011;3962;42.696;23.354;2022-09-09T07:41:59;5.37;;;4.50;;
7833;SDS011;3962;42.696;23.354;2022-09-09T07:44:26;5.30;;;4.23;;
7833;SDS011;3962;42.696;23.354;2022-09-09T07:46:53;5.50;;;4.50;;
7833;SDS011;3962;42.696;23.354;2022-09-09T07:49:20;5.03;;;3.90;;
7833;SDS011;3962;42.696;23.354;2022-09-09T07:51:49;9.90;;;5.20;;
7833;SDS011;3962;42.696;23.354;2022-09-09T07:54:16;6.57;;;4.43;;
7833;SDS011;3962;42.696;23.354;2022-09-09T07:56:45;7.37;;;4.43;;
7833;SDS011;3962;42.696;23.354;2022-09-09T07:59:13;6.53;;;4.17;;
7833;SDS011;3962;42.696;23.354;2022-09-09T08:01:41;6.10;;;4.30;;
7833;SDS011;3962;42.696;23.354;2022-09-09T08:04:09;8.60;;;4.20;;
7833;SDS011;3962;42.696;23.354;2022-09-09T08:06:41;5.30;;;4.17;;
7833;SDS011;3962;42.696;23.354;2022-09-09T08:09:11;6.10;;;4.23;;
7833;SDS011;3962;42.696;23.354;2022-09-09T08:11:39;5.10;;;4.00;;
7833;SDS011;3962;42.696;23.354;2022-09-09T08:14:06;5.93;;;4.10;;
7833;SDS011;3962;42.696;23.354;2022-09-09T08:16:35;6.43;;;4.17;;
7833;SDS011;3962;42.696;23.354;2022-09-09T08:19:03;10.53;;;4.70;;
7833;SDS011;3962;42.696;23.354;2022-09-09T08:21:31;5.63;;;4.70;;
7833;SDS011;3962;42.696;23.354;2022-09-09T08:23:59;6.00;;;4.90;;
7833;SDS011;3962;42.696;23.354;2022-09-09T08:26:29;5.00;;;4.40;;
7833;SDS011;3962;42.696;23.354;2022-09-09T08:28:57;9.00;;;5.87;;
7833;SDS011;3962;42.696;23.354;2022-09-09T08:31:26;5.13;;;4.10;;
7833;SDS011;3962;42.696;23.354;2022-09-09T08:33:54;5.27;;;4.50;;
7833;SDS011;3962;42.696;23.354;2022-09-09T08:36:21;7.93;;;4.47;;
7833;SDS011;3962;42.696;23.354;2022-09-09T08:38:50;5.53;;;4.50;;
7833;SDS011;3962;42.696;23.354;2022-09-09T08:41:29;8.37;;;4.37;;
7833;SDS011;3962;42.696;23.354;2022-09-09T08:44:06;9.10;;;4.70;;
7833;SDS011;3962;42.696;23.354;2022-09-09T08:46:39;7.80;;;4.57;;
7833;SDS011;3962;42.696;23.354;2022-09-09T08:49:16;8.63;;;4.93;;
7833;SDS011;3962;42.696;23.354;2022-09-09T08:51:53;10.10;;;4.30;;
7833;SDS011;3962;42.696;23.354;2022-09-09T08:54:22;10.50;;;4.87;;
7833;SDS011;3962;42.696;23.354;2022-09-09T08:56:51;6.57;;;3.90;;
7833;SDS011;3962;42.696;23.354;2022-09-09T08:59:18;5.87;;;4.20;;
7833;SDS011;3962;42.696;23.354;2022-09-09T09:01:50;6.37;;;4.50;;
7833;SDS011;3962;42.696;23.354;2022-09-09T09:04:32;6.97;;;4.93;;
7833;SDS011;3962;42.696;23.354;2022-09-09T09:07:12;4.77;;;4.10;;
7833;SDS011;3962;42.696;23.354;2022-09-09T09:09:51;8.63;;;5.27;;
7833;SDS011;3962;42.696;23.354;2022-09-09T09:12:30;6.07;;;4.70;;
7833;SDS011;3962;42.696;23.354;2022-09-09T09:15:05;8.20;;;4.90;;
7833;SDS011;3962;42.696;23.354;2022-09-09T09:17:42;6.03;;;4.53;;
7833;SDS011;3962;42.696;23.354;2022-09-09T09:20:11;8.23;;;4.47;;
7833;SDS011;3962;42.696;23.354;2022-09-09T09:22:43;5.03;;;4.20;;
7833;SDS011;3962;42.696;23.354;2022-09-09T09:25:17;7.43;;;4.50;;
7833;SDS011;3962;42.696;23.354;2022-09-09T09:27:49;7.27;;;5.00;;
7833;SDS011;3962;42.696;23.354;2022-09-09T09:30:26;5.00;;;4.50;;
7833;SDS011;3962;42.696;23.354;2022-09-09T09:32:59;6.27;;;5.20;;
7833;SDS011;3962;42.696;23.354;2022-09-09T09:35:29;7.97;;;5.10;;
7833;SDS011;3962;42.696;23.354;2022-09-09T09:37:56;5.50;;;5.00;;
7833;SDS011;3962;42.696;23.354;2022-09-09T09:40:23;7.23;;;4.70;;
7833;SDS011;3962;42.696;23.354;2022-09-09T09:42:52;6.13;;;5.10;;
7833;SDS011;3962;42.696;23.354;2022-09-09T09:45:25;8.50;;;5.10;;
7833;SDS011;3962;42.696;23.354;2022-09-09T09:48:00;8.37;;;5.03;;
7833;SDS011;3962;42.696;23.354;2022-09-09T09:50:29;6.83;;;4.97;;
7833;SDS011;3962;42.696;23.354;2022-09-09T09:52:57;7.27;;;5.33;;
7833;SDS011;3962;42.696;23.354;2022-09-09T09:55:26;8.50;;;5.50;;
7833;SDS011;3962;42.696;23.354;2022-09-09T09:58:01;7.30;;;5.13;;
7833;SDS011;3962;42.696;23.354;2022-09-09T10:00:29;6.90;;;4.63;;
7833;SDS011;3962;42.696;23.354;2022-09-09T10:02:56;7.53;;;5.27;;
7833;SDS011;3962;42.696;23.354;2022-09-09T10:05:26;9.40;;;5.50;;
7833;SDS011;3962;42.696;23.354;2022-09-09T10:08:02;6.87;;;5.17;;
7833;SDS011;3962;42.696;23.354;2022-09-09T10:10:40;6.83;;;5.20;;
7833;SDS011;3962;42.696;23.354;2022-09-09T10:13:18;7.93;;;5.43;;
7833;SDS011;3962;42.696;23.354;2022-09-09T10:15:58;6.87;;;5.13;;
7833;SDS011;3962;42.696;23.354;2022-09-09T10:18:45;8.20;;;4.97;;
7833;SDS011;3962;42.696;23.354;2022-09-09T10:21:25;8.60;;;5.53;;
7833;SDS011;3962;42.696;23.354;2022-09-09T10:24:19;8.23;;;5.33;;
7833;SDS011;3962;42.696;23.354;2022-09-09T10:27:09;8.47;;;5.90;;
7833;SDS011;3962;42.696;23.354;2022-09-09T10:29:59;10.97;;;6.00;;
7833;SDS011;3962;42.696;23.354;2022-09-09T10:32:38;10.23;;;6.00;;
7833;SDS011;3962;42.696;23.354;2022-09-09T10:35:11;9.20;;;5.90;;
7833;SDS011;3962;42.696;23.354;2022-09-09T10:37:51;9.83;;;7.20;;
7833;SDS011;3962;42.696;23.354;2022-09-09T10:40:32;10.00;;;6.33;;
7833;SDS011;3962;42.696;23.354;2022-09-09T10:43:07;9.93;;;6.30;;
7833;SDS011;3962;42.696;23.354;2022-09-09T10:45:48;9.93;;;6.63;;
7833;SDS011;3962;42.696;23.354;2022-09-09T10:48:34;9.10;;;6.10;;
7833;SDS011;3962;42.696;23.354;2022-09-09T10:51:16;14.13;;;6.20;;
7833;SDS011;3962;42.696;23.354;2022-09-09T10:53:52;10.50;;;5.97;;
7833;SDS011;3962;42.696;23.354;2022-09-09T10:56:28;11.43;;;6.53;;
7833;SDS011;3962;42.696;23.354;2022-09-09T10:58:58;11.67;;;6.27;;
7833;SDS011;3962;42.696;23.354;2022-09-09T11:01:31;7.53;;;5.83;;
7833;SDS011;3962;42.696;23.354;2022-09-09T11:04:03;9.70;;;6.30;;
7833;SDS011;3962;42.696;23.354;2022-09-09T11:06:37;12.43;;;7.63;;
7833;SDS011;3962;42.696;23.354;2022-09-09T11:09:08;11.13;;;7.53;;
7833;SDS011;3962;42.696;23.354;2022-09-09T11:11:43;12.60;;;7.40;;
7833;SDS011;3962;42.696;23.354;2022-09-09T11:14:18;9.27;;;6.37;;
7833;SDS011;3962;42.696;23.354;2022-09-09T11:16:49;10.30;;;6.23;;
7833;SDS011;3962;42.696;23.354;2022-09-09T11:19:19;11.33;;;6.77;;
7833;SDS011;3962;42.696;23.354;2022-09-09T11:21:51;13.67;;;6.57;;
7833;SDS011;3962;42.696;23.354;2022-09-09T11:24:21;11.30;;;6.37;;
7833;SDS011;3962;42.696;23.354;2022-09-09T11:26:54;12.63;;;6.80;;
7833;SDS011;3962;42.696;23.354;2022-09-09T11:29:32;9.67;;;6.17;;
7833;SDS011;3962;42.696;23.354;2022-09-09T11:32:27;9.20;;;6.10;;
7833;SDS011;3962;42.696;23.354;2022-09-09T11:35:09;13.27;;;6.30;;
7833;SDS011;3962;42.696;23.354;2022-09-09T11:37:55;12.40;;;6.60;;
7833;SDS011;3962;42.696;23.354;2022-09-09T11:40:32;10.93;;;6.17;;
7833;SDS011;3962;42.696;23.354;2022-09-09T11:43:01;10.93;;;6.77;;
7833;SDS011;3962;42.696;23.354;2022-09-09T11:45:31;13.77;;;6.63;;
7833;SDS011;3962;42.696;23.354;2022-09-09T11:48:03;9.43;;;6.57;;
7833;SDS011;3962;42.696;23.354;2022-09-09T11:50:32;11.87;;;6.73;;
7833;SDS011;3962;42.696;23.354;2022-09-09T11:53:20;10.33;;;5.90;;
7833;SDS011;3962;42.696;23.354;2022-09-09T11:56:00;13.83;;;6.40;;
7833;SDS011;3962;42.696;23.354;2022-09-09T11:58:42;13.83;;;6.93;;
7833;SDS011;3962;42.696;23.354;2022-09-09T12:01:27;12.13;;;7.60;;
7833;SDS011;3962;42.696;23.354;2022-09-09T12:04:05;11.07;;;7.60;;
7833;SDS011;3962;42.696;23.354;2022-09-09T12:06:42;12.83;;;7.00;;
7833;SDS011;3962;42.696;23.354;2022-09-09T12:09:16;13.93;;;6.80;;
7833;SDS011;3962;42.696;23.354;2022-09-09T12:11:47;8.40;;;6.83;;
7833;SDS011;3962;42.696;23.354;2022-09-09T12:14:21;8.77;;;6.73;;
7833;SDS011;3962;42.696;23.354;2022-09-09T12:17:09;9.27;;;6.33;;
7833;SDS011;3962;42.696;23.354;2022-09-09T12:19:37;14.00;;;6.87;;
7833;SDS011;3962;42.696;23.354;2022-09-09T12:22:05;10.13;;;6.67;;
7833;SDS011;3962;42.696;23.354;2022-09-09T12:24:40;10.93;;;6.73;;
7833;SDS011;3962;42.696;23.354;2022-09-09T12:27:14;9.57;;;6.60;;
7833;SDS011;3962;42.696;23.354;2022-09-09T12:29:47;12.27;;;6.50;;
7833;SDS011;3962;42.696;23.354;2022-09-09T12:32:24;9.87;;;5.93;;
7833;SDS011;3962;42.696;23.354;2022-09-09T12:34:55;10.30;;;6.60;;
7833;SDS011;3962;42.696;23.354;2022-09-09T12:37:27;10.57;;;6.57;;
7833;SDS011;3962;42.696;23.354;2022-09-09T12:39:59;7.83;;;6.13;;
7833;SDS011;3962;42.696;23.354;2022-09-09T12:42:28;9.17;;;6.63;;
7833;SDS011;3962;42.696;23.354;2022-09-09T12:44:56;9.07;;;6.90;;
7833;SDS011;3962;42.696;23.354;2022-09-09T12:47:25;8.93;;;6.60;;
7833;SDS011;3962;42.696;23.354;2022-09-09T12:50:02;11.13;;;7.23;;
7833;SDS011;3962;42.696;23.354;2022-09-09T12:52:30;10.13;;;7.27;;
7833;SDS011;3962;42.696;23.354;2022-09-09T12:54:59;10.13;;;7.13;;
7833;SDS011;3962;42.696;23.354;2022-09-09T12:57:31;8.43;;;7.00;;
7833;SDS011;3962;42.696;23.354;2022-09-09T13:00:05;10.63;;;7.37;;
7833;SDS011;3962;42.696;23.354;2022-09-09T13:02:36;10.63;;;6.97;;
7833;SDS011;3962;42.696;23.354;2022-09-09T13:05:15;9.03;;;6.60;;
7833;SDS011;3962;42.696;23.354;2022-09-09T13:07:43;7.70;;;6.30;;
7833;SDS011;3962;42.696;23.354;2022-09-09T13:10:11;9.23;;;6.80;;
7833;SDS011;3962;42.696;23.354;2022-09-09T13:12:39;8.10;;;6.63;;
7833;SDS011;3962;42.696;23.354;2022-09-09T13:15:19;13.53;;;7.17;;
7833;SDS011;3962;42.696;23.354;2022-09-09T13:17:52;10.47;;;7.30;;
7833;SDS011;3962;42.696;23.354;2022-09-09T13:20:22;8.87;;;6.77;;
7833;SDS011;3962;42.696;23.354;2022-09-09T13:22:51;9.83;;;7.10;;
7833;SDS011;3962;42.696;23.354;2022-09-09T13:25:21;11.70;;;7.43;;
7833;SDS011;3962;42.696;23.354;2022-09-09T13:27:55;7.90;;;6.83;;
7833;SDS011;3962;42.696;23.354;2022-09-09T13:30:25;9.03;;;6.40;;
7833;SDS011;3962;42.696;23.354;2022-09-09T13:33:17;12.33;;;7.13;;
7833;SDS011;3962;42.696;23.354;2022-09-09T13:35:49;10.03;;;7.30;;
7833;SDS011;3962;42.696;23.354;2022-09-09T13:38:19;9.93;;;7.10;;
7833;SDS011;3962;42.696;23.354;2022-09-09T13:40:53;9.50;;;7.07;;
7833;SDS011;3962;42.696;23.354;2022-09-09T13:43:24;11.10;;;6.70;;
7833;SDS011;3962;42.696;23.354;2022-09-09T13:45:52;14.57;;;6.50;;
7833;SDS011;3962;42.696;23.354;2022-09-09T13:48:21;9.30;;;7.03;;
7833;SDS011;3962;42.696;23.354;2022-09-09T13:50:54;9.03;;;6.23;;
7833;SDS011;3962;42.696;23.354;2022-09-09T13:53:23;8.40;;;5.73;;
7833;SDS011;3962;42.696;23.354;2022-09-09T13:55:50;9.57;;;6.20;;
7833;SDS011;3962;42.696;23.354;2022-09-09T13:58:17;14.83;;;6.33;;
7833;SDS011;3962;42.696;23.354;2022-09-09T14:00:45;9.87;;;6.73;;
7833;SDS011;3962;42.696;23.354;2022-09-09T14:03:12;11.00;;;8.20;;
7833;SDS011;3962;42.696;23.354;2022-09-09T14:05:39;9.17;;;6.67;;
7833;SDS011;3962;42.696;23.354;2022-09-09T14:08:10;17.30;;;7.53;;
7833;SDS011;3962;42.696;23.354;2022-09-09T14:10:46;9.77;;;7.33;;
7833;SDS011;3962;42.696;23.354;2022-09-09T14:13:13;11.27;;;8.13;;
7833;SDS011;3962;42.696;23.354;2022-09-09T14:15:40;10.70;;;7.07;;
7833;SDS011;3962;42.696;23.354;2022-09-09T14:18:09;9.43;;;7.17;;
7833;SDS011;3962;42.696;23.354;2022-09-09T14:20:37;9.67;;;6.40;;
7833;SDS011;3962;42.696;23.354;2022-09-09T14:23:04;11.53;;;6.40;;
7833;SDS011;3962;42.696;23.354;2022-09-09T14:25:33;10.97;;;6.90;;
7833;SDS011;3962;42.696;23.354;2022-09-09T14:28:00;7.67;;;6.53;;
7833;SDS011;3962;42.696;23.354;2022-09-09T14:30:27;12.90;;;6.03;;
7833;SDS011;3962;42.696;23.354;2022-09-09T14:32:54;8.83;;;5.80;;
7833;SDS011;3962;42.696;23.354;2022-09-09T14:35:21;8.13;;;6.03;;
7833;SDS011;3962;42.696;23.354;2022-09-09T14:37:48;8.90;;;6.47;;
7833;SDS011;3962;42.696;23.354;2022-09-09T14:40:15;8.70;;;5.87;;
7833;SDS011;3962;42.696;23.354;2022-09-09T14:42:44;11.80;;;7.23;;
7833;SDS011;3962;42.696;23.354;2022-09-09T14:45:11;11.17;;;6.53;;
7833;SDS011;3962;42.696;23.354;2022-09-09T14:47:38;9.50;;;5.60;;
7833;SDS011;3962;42.696;23.354;2022-09-09T14:50:05;9.10;;;5.60;;
7833;SDS011;3962;42.696;23.354;2022-09-09T14:52:33;7.10;;;5.20;;
7833;SDS011;3962;42.696;23.354;2022-09-09T14:55:00;11.10;;;6.23;;
7833;SDS011;3962;42.696;23.354;2022-09-09T14:57:27;13.97;;;6.57;;
7833;SDS011;3962;42.696;23.354;2022-09-09T14:59:55;9.43;;;6.13;;
7833;SDS011;3962;42.696;23.354;2022-09-09T15:02:22;9.37;;;5.90;;
7833;SDS011;3962;42.696;23.354;2022-09-09T15:04:48;12.53;;;5.93;;
7833;SDS011;3962;42.696;23.354;2022-09-09T15:07:17;11.60;;;6.23;;
7833;SDS011;3962;42.696;23.354;2022-09-09T15:09:44;11.43;;;7.20;;
7833;SDS011;3962;42.696;23.354;2022-09-09T15:12:12;11.47;;;7.20;;
7833;SDS011;3962;42.696;23.354;2022-09-09T15:14:40;8.63;;;5.97;;
7833;SDS011;3962;42.696;23.354;2022-09-09T15:17:09;10.63;;;5.87;;